logo dgac
Miércoles 17 de Enero del 2018
Buscar por aerodromo o helipuerto
Ingrese nombre de aeródromo, localidad o designador OACI:
TAF: TAF SCBA 171608Z 1718/1818 30030G45KT 9999 SCT040 TX18/1718Z TN10/1810Z BECMG 1800/2802 30025KT BECMG 1810/1812 30025G35KT BKN030
TAF del 17/01/2018 a las 16:08 UTC
Período de validez: desde el 17 a las 18:00 UTC hasta el 18 a las 18:00 UTC
Viento: dirección 300 grados, velocidad 30 nudos, con ráfagas de velocidad máxima de 45Nudos
Visibilidad: 10 km o más
Nubes: Nubosidad parcial a 4000 pies sobre el nivel del aeródromo
Temperatura máxima: 18ºC el 17 a las 18:00 UTC
Temperatura mínima: 10ºC el 18 a las 10:00 UTC
Se espera un cambio entre las 00:00 UTC del 18 y las 02:00 UTC del 28, :
Viento: dirección 300 grados, velocidad 25 nudos
Se espera un cambio entre las 10:00 UTC del 18 y las 12:00 UTC del 18, :
Viento: dirección 300 grados, velocidad 25 nudos, con ráfagas de velocidad máxima de 35Nudos
Nubes: Nublado a 3000 pies sobre el nivel del aeródromo